Terminal Aerodrome Forecast
Issued by NWS Billings, MT

Home | Current Version | Previous Version | Text Only | Print | Product List | Glossary On
Versions: 1 2 3 4 5 6 7 8 9 10 11 12 13
000
FTUS45 KBYZ 191728
TAFSHR
TAF
KSHR 191728Z 1918/2018 22006KT P6SM SCT120 BKN150
     FM192200 23006KT P6SM BKN080
     FM200600 23006KT P6SM SKC
     FM201200 23006KT P6SM SKC WS014/27037KT=

USA.gov is the U.S. government's official web portal to all federal, state and local government web resources and services.